sensor_id;sensor_type;location;lat;lon;timestamp;temperature;humidity
71142;DHT22;58808;59.366;17.970;2023-07-13T00:00:12;16.00;99.90
71142;DHT22;58808;59.366;17.970;2023-07-13T00:02:41;15.90;99.90
71142;DHT22;58808;59.366;17.970;2023-07-13T00:05:07;15.90;99.90
71142;DHT22;58808;59.366;17.970;2023-07-13T00:07:33;15.90;99.90
71142;DHT22;58808;59.366;17.970;2023-07-13T00:09:59;15.90;99.90
71142;DHT22;58808;59.366;17.970;2023-07-13T00:12:28;15.90;99.90
71142;DHT22;58808;59.366;17.970;2023-07-13T00:14:55;15.90;99.90
71142;DHT22;58808;59.366;17.970;2023-07-13T00:17:21;15.90;99.90
71142;DHT22;58808;59.366;17.970;2023-07-13T00:19:47;15.90;99.90
71142;DHT22;58808;59.366;17.970;2023-07-13T00:22:13;15.90;99.90
71142;DHT22;58808;59.366;17.970;2023-07-13T00:24:38;15.80;99.90
71142;DHT22;58808;59.366;17.970;2023-07-13T00:27:08;15.80;99.90
71142;DHT22;58808;59.366;17.970;2023-07-13T00:29:33;15.80;99.90
71142;DHT22;58808;59.366;17.970;2023-07-13T00:31:59;15.80;99.90
71142;DHT22;58808;59.366;17.970;2023-07-13T00:34:24;15.80;99.90
71142;DHT22;58808;59.366;17.970;2023-07-13T00:36:50;15.70;99.90
71142;DHT22;58808;59.366;17.970;2023-07-13T00:39:15;15.70;99.90
71142;DHT22;58808;59.366;17.970;2023-07-13T00:41:41;15.70;99.90
71142;DHT22;58808;59.366;17.970;2023-07-13T00:44:09;15.70;99.90
71142;DHT22;58808;59.366;17.970;2023-07-13T00:46:36;15.70;99.90
71142;DHT22;58808;59.366;17.970;2023-07-13T00:49:02;15.70;99.90
71142;DHT22;58808;59.366;17.970;2023-07-13T00:52:04;15.70;99.90
71142;DHT22;58808;59.366;17.970;2023-07-13T00:54:24;15.70;99.90
71142;DHT22;58808;59.366;17.970;2023-07-13T00:56:50;15.70;99.90
71142;DHT22;58808;59.366;17.970;2023-07-13T00:59:17;15.70;99.90
71142;DHT22;58808;59.366;17.970;2023-07-13T01:01:44;15.70;99.90
71142;DHT22;58808;59.366;17.970;2023-07-13T01:04:10;15.70;99.90
71142;DHT22;58808;59.366;17.970;2023-07-13T01:06:36;15.60;99.90
71142;DHT22;58808;59.366;17.970;2023-07-13T01:09:02;15.60;99.90
71142;DHT22;58808;59.366;17.970;2023-07-13T01:11:28;15.60;99.90
71142;DHT22;58808;59.366;17.970;2023-07-13T01:13:53;15.60;99.90
71142;DHT22;58808;59.366;17.970;2023-07-13T01:16:22;15.50;99.90
71142;DHT22;58808;59.366;17.970;2023-07-13T01:18:49;15.50;99.90
71142;DHT22;58808;59.366;17.970;2023-07-13T01:21:15;15.50;99.90
71142;DHT22;58808;59.366;17.970;2023-07-13T01:23:41;15.60;99.90
71142;DHT22;58808;59.366;17.970;2023-07-13T01:26:09;15.60;99.90
71142;DHT22;58808;59.366;17.970;2023-07-13T01:28:35;15.60;99.90
71142;DHT22;58808;59.366;17.970;2023-07-13T01:31:02;15.60;99.90
71142;DHT22;58808;59.366;17.970;2023-07-13T01:33:28;15.60;99.90
71142;DHT22;58808;59.366;17.970;2023-07-13T01:35:54;15.60;99.90
71142;DHT22;58808;59.366;17.970;2023-07-13T01:38:20;15.60;99.90
71142;DHT22;58808;59.366;17.970;2023-07-13T01:40:46;15.60;99.90
71142;DHT22;58808;59.366;17.970;2023-07-13T01:43:12;15.60;99.90
71142;DHT22;58808;59.366;17.970;2023-07-13T01:45:38;15.60;99.90
71142;DHT22;58808;59.366;17.970;2023-07-13T01:48:03;15.60;99.90
71142;DHT22;58808;59.366;17.970;2023-07-13T01:50:32;15.60;99.90
71142;DHT22;58808;59.366;17.970;2023-07-13T01:52:57;15.50;99.90
71142;DHT22;58808;59.366;17.970;2023-07-13T01:55:23;15.50;99.90
71142;DHT22;58808;59.366;17.970;2023-07-13T01:57:48;15.40;99.90
71142;DHT22;58808;59.366;17.970;2023-07-13T02:00:14;15.40;99.90
71142;DHT22;58808;59.366;17.970;2023-07-13T02:02:40;15.40;99.90
71142;DHT22;58808;59.366;17.970;2023-07-13T02:05:05;15.30;99.90
71142;DHT22;58808;59.366;17.970;2023-07-13T02:07:31;15.30;99.90
71142;DHT22;58808;59.366;17.970;2023-07-13T02:09:57;15.30;99.90
71142;DHT22;58808;59.366;17.970;2023-07-13T02:12:22;15.30;99.90
71142;DHT22;58808;59.366;17.970;2023-07-13T02:14:48;15.30;99.90
71142;DHT22;58808;59.366;17.970;2023-07-13T02:17:14;15.30;99.90
71142;DHT22;58808;59.366;17.970;2023-07-13T02:19:39;15.30;99.90
71142;DHT22;58808;59.366;17.970;2023-07-13T02:22:05;15.20;99.90
71142;DHT22;58808;59.366;17.970;2023-07-13T02:24:31;15.20;99.90
71142;DHT22;58808;59.366;17.970;2023-07-13T02:26:56;15.20;99.90
71142;DHT22;58808;59.366;17.970;2023-07-13T02:29:22;15.20;99.90
71142;DHT22;58808;59.366;17.970;2023-07-13T02:31:48;15.20;99.90
71142;DHT22;58808;59.366;17.970;2023-07-13T02:34:13;15.20;99.90
71142;DHT22;58808;59.366;17.970;2023-07-13T02:36:39;15.20;99.90
71142;DHT22;58808;59.366;17.970;2023-07-13T02:39:05;15.20;99.90
71142;DHT22;58808;59.366;17.970;2023-07-13T02:41:30;15.20;99.90
71142;DHT22;58808;59.366;17.970;2023-07-13T02:43:59;15.20;99.90
71142;DHT22;58808;59.366;17.970;2023-07-13T02:46:29;15.20;99.90
71142;DHT22;58808;59.366;17.970;2023-07-13T02:48:55;15.10;99.90
71142;DHT22;58808;59.366;17.970;2023-07-13T02:51:20;15.10;99.90
71142;DHT22;58808;59.366;17.970;2023-07-13T02:53:46;15.10;99.90
71142;DHT22;58808;59.366;17.970;2023-07-13T02:56:11;15.10;99.90
71142;DHT22;58808;59.366;17.970;2023-07-13T02:58:37;15.20;99.90
71142;DHT22;58808;59.366;17.970;2023-07-13T03:01:08;15.10;99.90
71142;DHT22;58808;59.366;17.970;2023-07-13T03:03:34;15.10;99.90
71142;DHT22;58808;59.366;17.970;2023-07-13T03:06:00;15.10;99.90
71142;DHT22;58808;59.366;17.970;2023-07-13T03:08:27;15.10;99.90
71142;DHT22;58808;59.366;17.970;2023-07-13T03:11:06;15.10;99.90
71142;DHT22;58808;59.366;17.970;2023-07-13T03:13:32;15.10;99.90
71142;DHT22;58808;59.366;17.970;2023-07-13T03:15:58;15.10;99.90
71142;DHT22;58808;59.366;17.970;2023-07-13T03:18:23;15.10;99.90
71142;DHT22;58808;59.366;17.970;2023-07-13T03:20:52;15.10;99.90
71142;DHT22;58808;59.366;17.970;2023-07-13T03:23:18;15.10;99.90
71142;DHT22;58808;59.366;17.970;2023-07-13T03:25:43;15.20;99.90
71142;DHT22;58808;59.366;17.970;2023-07-13T03:28:10;15.20;99.90
71142;DHT22;58808;59.366;17.970;2023-07-13T03:30:36;15.20;99.90
71142;DHT22;58808;59.366;17.970;2023-07-13T03:33:01;15.30;99.90
71142;DHT22;58808;59.366;17.970;2023-07-13T03:35:27;15.20;99.90
71142;DHT22;58808;59.366;17.970;2023-07-13T03:37:53;15.20;99.90
71142;DHT22;58808;59.366;17.970;2023-07-13T03:40:18;15.20;99.90
71142;DHT22;58808;59.366;17.970;2023-07-13T03:42:44;15.20;99.90
71142;DHT22;58808;59.366;17.970;2023-07-13T03:45:09;15.30;99.90
71142;DHT22;58808;59.366;17.970;2023-07-13T03:47:35;15.20;99.90
71142;DHT22;58808;59.366;17.970;2023-07-13T03:50:00;15.20;99.90
71142;DHT22;58808;59.366;17.970;2023-07-13T03:52:26;15.20;99.90
71142;DHT22;58808;59.366;17.970;2023-07-13T03:54:52;15.30;99.90
71142;DHT22;58808;59.366;17.970;2023-07-13T03:57:18;15.20;99.90
71142;DHT22;58808;59.366;17.970;2023-07-13T03:59:43;15.30;99.90
71142;DHT22;58808;59.366;17.970;2023-07-13T04:02:09;15.30;99.90
71142;DHT22;58808;59.366;17.970;2023-07-13T04:04:35;15.30;99.90
71142;DHT22;58808;59.366;17.970;2023-07-13T04:07:00;15.30;99.90
71142;DHT22;58808;59.366;17.970;2023-07-13T04:09:26;15.30;99.90
71142;DHT22;58808;59.366;17.970;2023-07-13T04:11:51;15.30;99.90
71142;DHT22;58808;59.366;17.970;2023-07-13T04:14:17;15.40;99.90
71142;DHT22;58808;59.366;17.970;2023-07-13T04:16:42;15.40;99.90
71142;DHT22;58808;59.366;17.970;2023-07-13T04:19:09;15.40;99.90
71142;DHT22;58808;59.366;17.970;2023-07-13T04:21:35;15.40;99.90
71142;DHT22;58808;59.366;17.970;2023-07-13T04:24:01;15.40;99.90
71142;DHT22;58808;59.366;17.970;2023-07-13T04:26:28;15.50;99.90
71142;DHT22;58808;59.366;17.970;2023-07-13T04:28:53;15.50;99.90
71142;DHT22;58808;59.366;17.970;2023-07-13T04:31:19;15.50;99.90
71142;DHT22;58808;59.366;17.970;2023-07-13T04:33:45;15.50;99.90
71142;DHT22;58808;59.366;17.970;2023-07-13T04:36:10;15.50;99.90
71142;DHT22;58808;59.366;17.970;2023-07-13T04:38:36;15.50;99.90
71142;DHT22;58808;59.366;17.970;2023-07-13T04:41:03;15.60;99.90
71142;DHT22;58808;59.366;17.970;2023-07-13T04:43:29;15.60;99.90
71142;DHT22;58808;59.366;17.970;2023-07-13T04:45:55;15.60;99.90
71142;DHT22;58808;59.366;17.970;2023-07-13T04:48:21;15.60;99.90
71142;DHT22;58808;59.366;17.970;2023-07-13T04:50:46;15.60;99.90
71142;DHT22;58808;59.366;17.970;2023-07-13T04:53:12;15.60;99.90
71142;DHT22;58808;59.366;17.970;2023-07-13T04:55:38;15.60;99.90
71142;DHT22;58808;59.366;17.970;2023-07-13T04:58:03;15.60;99.90
71142;DHT22;58808;59.366;17.970;2023-07-13T05:00:30;15.60;99.90
71142;DHT22;58808;59.366;17.970;2023-07-13T05:02:56;15.70;99.90
71142;DHT22;58808;59.366;17.970;2023-07-13T05:05:22;15.70;99.90
71142;DHT22;58808;59.366;17.970;2023-07-13T05:07:48;15.70;99.90
71142;DHT22;58808;59.366;17.970;2023-07-13T05:10:14;15.70;99.90
71142;DHT22;58808;59.366;17.970;2023-07-13T05:12:39;15.70;99.90
71142;DHT22;58808;59.366;17.970;2023-07-13T05:15:05;15.70;99.90
71142;DHT22;58808;59.366;17.970;2023-07-13T05:17:31;15.70;99.90
71142;DHT22;58808;59.366;17.970;2023-07-13T05:19:57;15.80;99.90
71142;DHT22;58808;59.366;17.970;2023-07-13T05:22:22;15.80;99.90
71142;DHT22;58808;59.366;17.970;2023-07-13T05:24:48;15.80;99.90
71142;DHT22;58808;59.366;17.970;2023-07-13T05:27:13;15.90;99.90
71142;DHT22;58808;59.366;17.970;2023-07-13T05:29:39;15.80;99.90
71142;DHT22;58808;59.366;17.970;2023-07-13T05:32:05;15.80;99.90
71142;DHT22;58808;59.366;17.970;2023-07-13T05:34:30;15.80;99.90
71142;DHT22;58808;59.366;17.970;2023-07-13T05:36:56;15.80;99.90
71142;DHT22;58808;59.366;17.970;2023-07-13T05:39:22;15.80;99.90
71142;DHT22;58808;59.366;17.970;2023-07-13T05:41:48;15.80;99.90
71142;DHT22;58808;59.366;17.970;2023-07-13T05:44:13;15.80;99.90
71142;DHT22;58808;59.366;17.970;2023-07-13T05:46:39;15.90;99.90
71142;DHT22;58808;59.366;17.970;2023-07-13T05:49:04;15.90;99.90
71142;DHT22;58808;59.366;17.970;2023-07-13T05:51:30;16.00;99.90
71142;DHT22;58808;59.366;17.970;2023-07-13T05:53:55;16.00;99.90
71142;DHT22;58808;59.366;17.970;2023-07-13T05:56:21;16.00;99.90
71142;DHT22;58808;59.366;17.970;2023-07-13T05:58:47;16.10;99.90
71142;DHT22;58808;59.366;17.970;2023-07-13T06:01:14;16.10;99.90
71142;DHT22;58808;59.366;17.970;2023-07-13T06:03:40;16.10;99.90
71142;DHT22;58808;59.366;17.970;2023-07-13T06:06:06;16.10;99.90
71142;DHT22;58808;59.366;17.970;2023-07-13T06:08:32;16.10;99.90
71142;DHT22;58808;59.366;17.970;2023-07-13T06:11:01;16.10;99.90
71142;DHT22;58808;59.366;17.970;2023-07-13T06:13:27;16.00;99.90
71142;DHT22;58808;59.366;17.970;2023-07-13T06:15:52;16.00;99.90
71142;DHT22;58808;59.366;17.970;2023-07-13T06:18:18;16.00;99.90
71142;DHT22;58808;59.366;17.970;2023-07-13T06:20:43;16.00;99.90
71142;DHT22;58808;59.366;17.970;2023-07-13T06:23:09;16.00;99.90
71142;DHT22;58808;59.366;17.970;2023-07-13T06:25:35;16.00;99.90
71142;DHT22;58808;59.366;17.970;2023-07-13T06:28:00;16.10;99.90
71142;DHT22;58808;59.366;17.970;2023-07-13T06:30:26;16.20;99.90
71142;DHT22;58808;59.366;17.970;2023-07-13T06:32:52;16.30;99.90
71142;DHT22;58808;59.366;17.970;2023-07-13T06:35:17;16.30;99.90
71142;DHT22;58808;59.366;17.970;2023-07-13T06:37:43;16.30;99.90
71142;DHT22;58808;59.366;17.970;2023-07-13T06:40:09;16.30;99.90
71142;DHT22;58808;59.366;17.970;2023-07-13T06:42:34;16.30;99.90
71142;DHT22;58808;59.366;17.970;2023-07-13T06:45:00;16.40;99.90
71142;DHT22;58808;59.366;17.970;2023-07-13T06:47:26;16.40;99.90
71142;DHT22;58808;59.366;17.970;2023-07-13T06:49:51;16.40;99.90
71142;DHT22;58808;59.366;17.970;2023-07-13T06:52:17;16.50;99.90
71142;DHT22;58808;59.366;17.970;2023-07-13T06:54:42;16.50;99.90
71142;DHT22;58808;59.366;17.970;2023-07-13T06:57:08;16.60;99.90
71142;DHT22;58808;59.366;17.970;2023-07-13T06:59:34;16.60;99.90
71142;DHT22;58808;59.366;17.970;2023-07-13T07:02:00;16.60;99.90
71142;DHT22;58808;59.366;17.970;2023-07-13T07:04:25;16.60;99.90
71142;DHT22;58808;59.366;17.970;2023-07-13T07:06:51;16.70;99.90
71142;DHT22;58808;59.366;17.970;2023-07-13T07:09:17;16.80;99.90
71142;DHT22;58808;59.366;17.970;2023-07-13T07:11:43;16.90;99.90
71142;DHT22;58808;59.366;17.970;2023-07-13T07:14:08;17.00;99.90
71142;DHT22;58808;59.366;17.970;2023-07-13T07:16:34;17.10;99.90
71142;DHT22;58808;59.366;17.970;2023-07-13T07:18:59;17.20;99.90
71142;DHT22;58808;59.366;17.970;2023-07-13T07:21:25;17.30;99.90
71142;DHT22;58808;59.366;17.970;2023-07-13T07:23:51;17.50;99.90
71142;DHT22;58808;59.366;17.970;2023-07-13T07:26:17;17.70;99.90
71142;DHT22;58808;59.366;17.970;2023-07-13T07:28:42;17.80;99.90
71142;DHT22;58808;59.366;17.970;2023-07-13T07:31:08;17.80;99.90
71142;DHT22;58808;59.366;17.970;2023-07-13T07:33:34;17.90;99.90
71142;DHT22;58808;59.366;17.970;2023-07-13T07:36:00;17.90;99.90
71142;DHT22;58808;59.366;17.970;2023-07-13T07:38:25;17.90;99.90
71142;DHT22;58808;59.366;17.970;2023-07-13T07:40:52;17.90;99.90
71142;DHT22;58808;59.366;17.970;2023-07-13T07:43:17;18.10;99.90
71142;DHT22;58808;59.366;17.970;2023-07-13T07:45:44;18.10;99.90
71142;DHT22;58808;59.366;17.970;2023-07-13T07:48:09;18.10;99.90
71142;DHT22;58808;59.366;17.970;2023-07-13T07:50:35;18.20;99.90
71142;DHT22;58808;59.366;17.970;2023-07-13T07:53:00;18.40;99.90
71142;DHT22;58808;59.366;17.970;2023-07-13T07:55:27;18.60;99.90
71142;DHT22;58808;59.366;17.970;2023-07-13T07:57:53;18.60;99.90
71142;DHT22;58808;59.366;17.970;2023-07-13T08:00:18;18.70;99.90
71142;DHT22;58808;59.366;17.970;2023-07-13T08:02:44;18.60;99.90
71142;DHT22;58808;59.366;17.970;2023-07-13T08:05:10;18.50;99.90
71142;DHT22;58808;59.366;17.970;2023-07-13T08:07:39;18.60;99.90
71142;DHT22;58808;59.366;17.970;2023-07-13T08:10:05;18.60;99.90
71142;DHT22;58808;59.366;17.970;2023-07-13T08:12:33;18.70;99.90
71142;DHT22;58808;59.366;17.970;2023-07-13T08:14:59;18.90;99.90
71142;DHT22;58808;59.366;17.970;2023-07-13T08:17:26;19.00;99.90
71142;DHT22;58808;59.366;17.970;2023-07-13T08:19:51;19.10;99.90
71142;DHT22;58808;59.366;17.970;2023-07-13T08:22:17;19.30;99.90
71142;DHT22;58808;59.366;17.970;2023-07-13T08:24:42;19.40;99.90
71142;DHT22;58808;59.366;17.970;2023-07-13T08:27:09;19.40;99.90
71142;DHT22;58808;59.366;17.970;2023-07-13T08:29:36;19.50;99.90
71142;DHT22;58808;59.366;17.970;2023-07-13T08:32:02;19.50;99.90
71142;DHT22;58808;59.366;17.970;2023-07-13T08:34:28;19.50;99.90
71142;DHT22;58808;59.366;17.970;2023-07-13T08:36:53;19.60;99.90
71142;DHT22;58808;59.366;17.970;2023-07-13T08:39:19;19.90;99.90
71142;DHT22;58808;59.366;17.970;2023-07-13T08:41:46;19.90;99.90
71142;DHT22;58808;59.366;17.970;2023-07-13T08:44:19;19.60;99.90
71142;DHT22;58808;59.366;17.970;2023-07-13T08:46:49;19.60;99.90
71142;DHT22;58808;59.366;17.970;2023-07-13T08:49:16;19.50;99.90
71142;DHT22;58808;59.366;17.970;2023-07-13T08:54:19;19.40;99.90
71142;DHT22;58808;59.366;17.970;2023-07-13T08:56:46;19.10;99.90
71142;DHT22;58808;59.366;17.970;2023-07-13T08:59:15;19.20;99.90
71142;DHT22;58808;59.366;17.970;2023-07-13T09:11:56;20.00;99.90
71142;DHT22;58808;59.366;17.970;2023-07-13T09:16:57;19.70;99.90
71142;DHT22;58808;59.366;17.970;2023-07-13T09:19:26;19.70;99.90
71142;DHT22;58808;59.366;17.970;2023-07-13T09:21:54;19.50;99.90
71142;DHT22;58808;59.366;17.970;2023-07-13T09:26:46;19.50;99.90
71142;DHT22;58808;59.366;17.970;2023-07-13T09:29:24;19.40;99.90
71142;DHT22;58808;59.366;17.970;2023-07-13T09:31:53;19.40;99.90
71142;DHT22;58808;59.366;17.970;2023-07-13T09:34:19;19.50;99.90
71142;DHT22;58808;59.366;17.970;2023-07-13T09:36:45;19.50;99.90
71142;DHT22;58808;59.366;17.970;2023-07-13T09:39:13;19.70;99.90
71142;DHT22;58808;59.366;17.970;2023-07-13T09:41:47;19.60;99.90
71142;DHT22;58808;59.366;17.970;2023-07-13T09:44:16;19.50;99.90
71142;DHT22;58808;59.366;17.970;2023-07-13T09:46:46;19.30;99.90
71142;DHT22;58808;59.366;17.970;2023-07-13T09:49:12;19.50;99.90
71142;DHT22;58808;59.366;17.970;2023-07-13T09:51:41;19.70;99.90
71142;DHT22;58808;59.366;17.970;2023-07-13T09:54:20;19.80;98.80
71142;DHT22;58808;59.366;17.970;2023-07-13T09:56:46;19.90;98.50
71142;DHT22;58808;59.366;17.970;2023-07-13T09:59:21;19.80;99.00
71142;DHT22;58808;59.366;17.970;2023-07-13T10:01:49;19.70;99.50
71142;DHT22;58808;59.366;17.970;2023-07-13T10:04:16;19.60;99.70
71142;DHT22;58808;59.366;17.970;2023-07-13T10:06:44;19.40;99.90
71142;DHT22;58808;59.366;17.970;2023-07-13T10:09:09;19.50;99.90
71142;DHT22;58808;59.366;17.970;2023-07-13T10:11:36;19.40;99.50
71142;DHT22;58808;59.366;17.970;2023-07-13T10:14:07;19.40;99.70
71142;DHT22;58808;59.366;17.970;2023-07-13T10:16:34;19.50;99.90
71142;DHT22;58808;59.366;17.970;2023-07-13T10:19:11;19.60;98.10
71142;DHT22;58808;59.366;17.970;2023-07-13T10:21:49;19.70;98.00
71142;DHT22;58808;59.366;17.970;2023-07-13T10:24:20;19.70;98.30
71142;DHT22;58808;59.366;17.970;2023-07-13T10:26:57;19.80;97.80
71142;DHT22;58808;59.366;17.970;2023-07-13T10:29:25;19.80;96.40
71142;DHT22;58808;59.366;17.970;2023-07-13T10:31:52;19.90;95.00
71142;DHT22;58808;59.366;17.970;2023-07-13T10:34:18;19.80;94.80
71142;DHT22;58808;59.366;17.970;2023-07-13T10:36:44;19.80;94.60
71142;DHT22;58808;59.366;17.970;2023-07-13T10:39:14;20.00;93.70
71142;DHT22;58808;59.366;17.970;2023-07-13T10:41:41;20.40;92.40
71142;DHT22;58808;59.366;17.970;2023-07-13T10:44:11;20.60;92.30
71142;DHT22;58808;59.366;17.970;2023-07-13T10:46:40;20.60;92.80
71142;DHT22;58808;59.366;17.970;2023-07-13T10:49:06;20.60;92.80
71142;DHT22;58808;59.366;17.970;2023-07-13T10:51:33;20.70;93.00
71142;DHT22;58808;59.366;17.970;2023-07-13T10:54:18;20.90;90.90
71142;DHT22;58808;59.366;17.970;2023-07-13T10:56:45;20.70;90.20
71142;DHT22;58808;59.366;17.970;2023-07-13T10:59:16;20.80;90.90
71142;DHT22;58808;59.366;17.970;2023-07-13T11:01:50;20.90;90.30
71142;DHT22;58808;59.366;17.970;2023-07-13T11:04:18;21.00;90.50
71142;DHT22;58808;59.366;17.970;2023-07-13T11:06:47;21.20;87.90
71142;DHT22;58808;59.366;17.970;2023-07-13T11:11:59;21.50;85.90
71142;DHT22;58808;59.366;17.970;2023-07-13T11:14:30;21.30;87.60
71142;DHT22;58808;59.366;17.970;2023-07-13T11:17:03;21.10;86.70
71142;DHT22;58808;59.366;17.970;2023-07-13T11:19:45;20.80;86.70
71142;DHT22;58808;59.366;17.970;2023-07-13T11:22:21;20.90;87.00
71142;DHT22;58808;59.366;17.970;2023-07-13T11:24:51;21.00;86.90
71142;DHT22;58808;59.366;17.970;2023-07-13T11:27:34;21.30;87.60
71142;DHT22;58808;59.366;17.970;2023-07-13T11:30:09;21.60;86.90
71142;DHT22;58808;59.366;17.970;2023-07-13T11:32:39;22.10;82.70
71142;DHT22;58808;59.366;17.970;2023-07-13T11:35:09;22.20;80.50
71142;DHT22;58808;59.366;17.970;2023-07-13T11:37:37;22.00;78.90
71142;DHT22;58808;59.366;17.970;2023-07-13T11:40:04;21.80;81.00
71142;DHT22;58808;59.366;17.970;2023-07-13T11:42:31;21.90;80.90
71142;DHT22;58808;59.366;17.970;2023-07-13T11:44:57;22.20;80.10
71142;DHT22;58808;59.366;17.970;2023-07-13T11:47:24;22.30;78.40
71142;DHT22;58808;59.366;17.970;2023-07-13T11:49:52;22.50;78.10
71142;DHT22;58808;59.366;17.970;2023-07-13T11:52:23;22.40;77.40
71142;DHT22;58808;59.366;17.970;2023-07-13T11:54:52;22.20;77.40
71142;DHT22;58808;59.366;17.970;2023-07-13T12:00:09;21.30;78.90
71142;DHT22;58808;59.366;17.970;2023-07-13T12:02:37;21.00;80.10
71142;DHT22;58808;59.366;17.970;2023-07-13T12:05:04;20.90;81.10
71142;DHT22;58808;59.366;17.970;2023-07-13T12:07:31;20.90;82.10
71142;DHT22;58808;59.366;17.970;2023-07-13T12:10:13;21.10;81.80
71142;DHT22;58808;59.366;17.970;2023-07-13T12:12:46;21.20;81.20
71142;DHT22;58808;59.366;17.970;2023-07-13T12:15:12;21.50;80.40
71142;DHT22;58808;59.366;17.970;2023-07-13T12:17:38;21.60;77.70
71142;DHT22;58808;59.366;17.970;2023-07-13T12:20:07;21.70;74.60
71142;DHT22;58808;59.366;17.970;2023-07-13T12:22:39;21.50;75.20
71142;DHT22;58808;59.366;17.970;2023-07-13T12:25:06;21.30;75.70
71142;DHT22;58808;59.366;17.970;2023-07-13T12:27:31;21.30;77.50
71142;DHT22;58808;59.366;17.970;2023-07-13T12:30:00;21.20;78.10
71142;DHT22;58808;59.366;17.970;2023-07-13T12:32:26;21.20;79.10
71142;DHT22;58808;59.366;17.970;2023-07-13T12:34:53;21.50;78.20
71142;DHT22;58808;59.366;17.970;2023-07-13T12:37:19;21.60;77.30
71142;DHT22;58808;59.366;17.970;2023-07-13T12:39:46;21.60;78.10
71142;DHT22;58808;59.366;17.970;2023-07-13T12:44:49;21.90;78.40
71142;DHT22;58808;59.366;17.970;2023-07-13T12:47:15;22.20;78.00
71142;DHT22;58808;59.366;17.970;2023-07-13T12:49:48;22.40;77.80
71142;DHT22;58808;59.366;17.970;2023-07-13T12:52:15;22.60;76.10
71142;DHT22;58808;59.366;17.970;2023-07-13T12:54:41;22.80;72.50
71142;DHT22;58808;59.366;17.970;2023-07-13T12:57:08;22.80;71.70
71142;DHT22;58808;59.366;17.970;2023-07-13T12:59:38;22.80;69.50
71142;DHT22;58808;59.366;17.970;2023-07-13T13:02:15;22.50;70.80
71142;DHT22;58808;59.366;17.970;2023-07-13T13:04:44;22.30;71.60
71142;DHT22;58808;59.366;17.970;2023-07-13T13:07:09;22.00;72.60
71142;DHT22;58808;59.366;17.970;2023-07-13T13:09:35;21.80;73.10
71142;DHT22;58808;59.366;17.970;2023-07-13T13:12:01;21.80;72.90
71142;DHT22;58808;59.366;17.970;2023-07-13T13:14:26;21.80;74.20
71142;DHT22;58808;59.366;17.970;2023-07-13T13:16:52;22.30;74.10
71142;DHT22;58808;59.366;17.970;2023-07-13T13:21:44;22.70;70.40
71142;DHT22;58808;59.366;17.970;2023-07-13T13:24:14;22.70;70.00
71142;DHT22;58808;59.366;17.970;2023-07-13T13:26:40;22.40;70.60
71142;DHT22;58808;59.366;17.970;2023-07-13T13:29:11;22.30;71.80
71142;DHT22;58808;59.366;17.970;2023-07-13T13:31:38;22.50;71.90
71142;DHT22;58808;59.366;17.970;2023-07-13T13:34:04;22.80;69.90
71142;DHT22;58808;59.366;17.970;2023-07-13T13:36:32;23.00;69.40
71142;DHT22;58808;59.366;17.970;2023-07-13T13:38:58;23.20;68.70
71142;DHT22;58808;59.366;17.970;2023-07-13T13:41:23;23.00;68.30
71142;DHT22;58808;59.366;17.970;2023-07-13T13:43:49;22.80;69.30
71142;DHT22;58808;59.366;17.970;2023-07-13T13:48:40;22.20;70.00
71142;DHT22;58808;59.366;17.970;2023-07-13T13:51:11;22.00;71.30
71142;DHT22;58808;59.366;17.970;2023-07-13T13:53:38;21.80;72.20
71142;DHT22;58808;59.366;17.970;2023-07-13T13:56:04;21.90;70.90
71142;DHT22;58808;59.366;17.970;2023-07-13T13:58:30;22.30;70.50
71142;DHT22;58808;59.366;17.970;2023-07-13T14:00:56;22.50;69.40
71142;DHT22;58808;59.366;17.970;2023-07-13T14:03:21;22.50;69.00
71142;DHT22;58808;59.366;17.970;2023-07-13T14:05:47;22.60;69.50
71142;DHT22;58808;59.366;17.970;2023-07-13T14:08:17;22.60;69.60
71142;DHT22;58808;59.366;17.970;2023-07-13T14:10:48;22.40;69.60
71142;DHT22;58808;59.366;17.970;2023-07-13T14:13:36;22.50;68.40
71142;DHT22;58808;59.366;17.970;2023-07-13T14:16:00;22.40;68.40
71142;DHT22;58808;59.366;17.970;2023-07-13T14:18:25;22.20;68.40
71142;DHT22;58808;59.366;17.970;2023-07-13T14:20:51;22.10;69.00
71142;DHT22;58808;59.366;17.970;2023-07-13T14:23:17;22.20;69.10
71142;DHT22;58808;59.366;17.970;2023-07-13T14:25:44;22.60;68.10
71142;DHT22;58808;59.366;17.970;2023-07-13T14:28:20;23.00;66.90
71142;DHT22;58808;59.366;17.970;2023-07-13T14:30:47;23.50;65.40
71142;DHT22;58808;59.366;17.970;2023-07-13T14:33:12;23.60;64.00
71142;DHT22;58808;59.366;17.970;2023-07-13T14:35:38;23.50;63.20
71142;DHT22;58808;59.366;17.970;2023-07-13T14:38:04;23.20;62.10
71142;DHT22;58808;59.366;17.970;2023-07-13T14:40:31;22.90;62.10
71142;DHT22;58808;59.366;17.970;2023-07-13T14:42:57;22.60;63.70
71142;DHT22;58808;59.366;17.970;2023-07-13T14:45:23;22.40;64.70
71142;DHT22;58808;59.366;17.970;2023-07-13T14:47:49;22.20;65.20
71142;DHT22;58808;59.366;17.970;2023-07-13T14:50:25;22.20;66.10
71142;DHT22;58808;59.366;17.970;2023-07-13T14:52:53;22.10;64.90
71142;DHT22;58808;59.366;17.970;2023-07-13T14:55:18;22.00;65.40
71142;DHT22;58808;59.366;17.970;2023-07-13T14:57:44;21.90;68.40
71142;DHT22;58808;59.366;17.970;2023-07-13T15:00:20;21.80;71.70
71142;DHT22;58808;59.366;17.970;2023-07-13T15:02:50;21.70;73.30
71142;DHT22;58808;59.366;17.970;2023-07-13T15:05:20;21.70;71.50
71142;DHT22;58808;59.366;17.970;2023-07-13T15:07:48;21.70;74.10
71142;DHT22;58808;59.366;17.970;2023-07-13T15:10:25;21.70;75.80
71142;DHT22;58808;59.366;17.970;2023-07-13T15:12:51;21.70;76.40
71142;DHT22;58808;59.366;17.970;2023-07-13T15:15:16;21.60;75.50
71142;DHT22;58808;59.366;17.970;2023-07-13T15:17:43;21.60;76.50
71142;DHT22;58808;59.366;17.970;2023-07-13T15:22:38;21.50;79.00
71142;DHT22;58808;59.366;17.970;2023-07-13T15:25:03;21.60;79.60
71142;DHT22;58808;59.366;17.970;2023-07-13T15:27:33;21.60;80.40
71142;DHT22;58808;59.366;17.970;2023-07-13T15:30:00;21.50;80.00
71142;DHT22;58808;59.366;17.970;2023-07-13T15:32:25;21.40;81.50
71142;DHT22;58808;59.366;17.970;2023-07-13T15:34:51;21.40;82.10
71142;DHT22;58808;59.366;17.970;2023-07-13T15:37:17;21.40;82.10
71142;DHT22;58808;59.366;17.970;2023-07-13T15:39:43;21.40;81.40
71142;DHT22;58808;59.366;17.970;2023-07-13T15:42:19;21.40;81.50
71142;DHT22;58808;59.366;17.970;2023-07-13T15:44:45;21.40;82.60
71142;DHT22;58808;59.366;17.970;2023-07-13T15:47:11;21.30;83.20